sensor_id;sensor_type;location;lat;lon;timestamp;temperature;humidity
25918;DHT22;13899;51.174;4.456;2022-08-19T00:01:21;21.70;99.90
25918;DHT22;13899;51.174;4.456;2022-08-19T00:03:47;21.70;99.90
25918;DHT22;13899;51.174;4.456;2022-08-19T00:06:14;21.90;99.90
25918;DHT22;13899;51.174;4.456;2022-08-19T00:08:40;21.80;99.90
25918;DHT22;13899;51.174;4.456;2022-08-19T00:11:07;21.90;99.90
25918;DHT22;13899;51.174;4.456;2022-08-19T00:13:33;21.80;99.90
25918;DHT22;13899;51.174;4.456;2022-08-19T00:15:59;21.90;99.90
25918;DHT22;13899;51.174;4.456;2022-08-19T00:18:25;22.00;99.90
25918;DHT22;13899;51.174;4.456;2022-08-19T00:20:51;21.80;99.90
25918;DHT22;13899;51.174;4.456;2022-08-19T00:23:16;21.90;99.90
25918;DHT22;13899;51.174;4.456;2022-08-19T00:25:42;21.70;99.90
25918;DHT22;13899;51.174;4.456;2022-08-19T00:28:08;21.80;99.90
25918;DHT22;13899;51.174;4.456;2022-08-19T00:30:33;21.80;99.90
25918;DHT22;13899;51.174;4.456;2022-08-19T00:32:59;21.90;99.90
25918;DHT22;13899;51.174;4.456;2022-08-19T00:35:25;21.60;99.90
25918;DHT22;13899;51.174;4.456;2022-08-19T00:37:53;21.70;99.90
25918;DHT22;13899;51.174;4.456;2022-08-19T00:40:19;21.50;99.90
25918;DHT22;13899;51.174;4.456;2022-08-19T00:42:45;21.50;99.90
25918;DHT22;13899;51.174;4.456;2022-08-19T00:45:17;21.40;99.90
25918;DHT22;13899;51.174;4.456;2022-08-19T00:47:44;21.60;99.90
25918;DHT22;13899;51.174;4.456;2022-08-19T00:50:15;21.60;99.90
25918;DHT22;13899;51.174;4.456;2022-08-19T00:52:45;21.50;99.90
25918;DHT22;13899;51.174;4.456;2022-08-19T00:55:21;21.60;99.90
25918;DHT22;13899;51.174;4.456;2022-08-19T00:58:12;21.60;99.90
25918;DHT22;13899;51.174;4.456;2022-08-19T01:00:39;21.80;99.90
25918;DHT22;13899;51.174;4.456;2022-08-19T01:03:11;21.70;99.90
25918;DHT22;13899;51.174;4.456;2022-08-19T01:05:39;21.80;99.90
25918;DHT22;13899;51.174;4.456;2022-08-19T01:08:07;21.60;99.90
25918;DHT22;13899;51.174;4.456;2022-08-19T01:10:43;21.50;99.90
25918;DHT22;13899;51.174;4.456;2022-08-19T01:13:14;21.50;99.90
25918;DHT22;13899;51.174;4.456;2022-08-19T01:15:46;21.30;99.90
25918;DHT22;13899;51.174;4.456;2022-08-19T01:18:16;21.20;99.90
25918;DHT22;13899;51.174;4.456;2022-08-19T01:20:43;20.90;99.90
25918;DHT22;13899;51.174;4.456;2022-08-19T01:23:09;20.90;99.90
25918;DHT22;13899;51.174;4.456;2022-08-19T01:25:42;20.70;99.90
25918;DHT22;13899;51.174;4.456;2022-08-19T01:28:18;20.80;99.90
25918;DHT22;13899;51.174;4.456;2022-08-19T01:30:45;20.80;99.90
25918;DHT22;13899;51.174;4.456;2022-08-19T01:33:12;20.90;99.90
25918;DHT22;13899;51.174;4.456;2022-08-19T01:35:38;20.50;99.90
25918;DHT22;13899;51.174;4.456;2022-08-19T01:38:07;20.60;99.90
25918;DHT22;13899;51.174;4.456;2022-08-19T01:40:35;20.30;99.90
25918;DHT22;13899;51.174;4.456;2022-08-19T01:43:02;20.30;99.90
25918;DHT22;13899;51.174;4.456;2022-08-19T01:45:28;20.20;99.90
25918;DHT22;13899;51.174;4.456;2022-08-19T01:47:57;20.00;99.90
25918;DHT22;13899;51.174;4.456;2022-08-19T01:50:24;20.10;99.90
25918;DHT22;13899;51.174;4.456;2022-08-19T01:52:50;20.30;99.90
25918;DHT22;13899;51.174;4.456;2022-08-19T01:55:19;20.00;99.90
25918;DHT22;13899;51.174;4.456;2022-08-19T01:57:50;19.90;99.90
25918;DHT22;13899;51.174;4.456;2022-08-19T02:00:19;20.00;99.90
25918;DHT22;13899;51.174;4.456;2022-08-19T02:02:45;20.20;99.90
25918;DHT22;13899;51.174;4.456;2022-08-19T02:05:11;20.10;99.90
25918;DHT22;13899;51.174;4.456;2022-08-19T02:07:39;20.10;99.90
25918;DHT22;13899;51.174;4.456;2022-08-19T02:10:10;20.10;99.90
25918;DHT22;13899;51.174;4.456;2022-08-19T02:12:37;20.10;99.90
25918;DHT22;13899;51.174;4.456;2022-08-19T02:15:04;19.90;99.90
25918;DHT22;13899;51.174;4.456;2022-08-19T02:17:29;19.70;99.90
25918;DHT22;13899;51.174;4.456;2022-08-19T02:19:56;19.70;99.90
25918;DHT22;13899;51.174;4.456;2022-08-19T02:22:25;19.90;99.90
25918;DHT22;13899;51.174;4.456;2022-08-19T02:24:52;19.80;99.90
25918;DHT22;13899;51.174;4.456;2022-08-19T02:27:25;19.60;99.90
25918;DHT22;13899;51.174;4.456;2022-08-19T02:29:52;19.50;99.90
25918;DHT22;13899;51.174;4.456;2022-08-19T02:32:18;19.50;99.90
25918;DHT22;13899;51.174;4.456;2022-08-19T02:34:46;19.70;99.90
25918;DHT22;13899;51.174;4.456;2022-08-19T02:37:13;19.60;99.90
25918;DHT22;13899;51.174;4.456;2022-08-19T02:39:57;19.60;99.90
25918;DHT22;13899;51.174;4.456;2022-08-19T02:42:23;19.60;99.90
25918;DHT22;13899;51.174;4.456;2022-08-19T02:44:49;19.40;99.90
25918;DHT22;13899;51.174;4.456;2022-08-19T02:47:15;19.40;99.90
25918;DHT22;13899;51.174;4.456;2022-08-19T02:49:41;19.50;99.90
25918;DHT22;13899;51.174;4.456;2022-08-19T02:52:07;19.80;99.90
25918;DHT22;13899;51.174;4.456;2022-08-19T02:54:33;19.50;99.90
25918;DHT22;13899;51.174;4.456;2022-08-19T02:56:59;19.30;99.90
25918;DHT22;13899;51.174;4.456;2022-08-19T02:59:25;19.20;99.90
25918;DHT22;13899;51.174;4.456;2022-08-19T03:01:51;19.00;99.90
25918;DHT22;13899;51.174;4.456;2022-08-19T03:04:18;19.10;99.90
25918;DHT22;13899;51.174;4.456;2022-08-19T03:06:45;19.30;99.90
25918;DHT22;13899;51.174;4.456;2022-08-19T03:09:11;19.40;99.90
25918;DHT22;13899;51.174;4.456;2022-08-19T03:11:37;19.50;99.90
25918;DHT22;13899;51.174;4.456;2022-08-19T03:14:05;19.50;99.90
25918;DHT22;13899;51.174;4.456;2022-08-19T03:16:34;19.30;99.90
25918;DHT22;13899;51.174;4.456;2022-08-19T03:19:01;19.00;99.90
25918;DHT22;13899;51.174;4.456;2022-08-19T03:21:31;18.90;99.90
25918;DHT22;13899;51.174;4.456;2022-08-19T03:24:01;18.70;99.90
25918;DHT22;13899;51.174;4.456;2022-08-19T03:26:31;18.80;99.90
25918;DHT22;13899;51.174;4.456;2022-08-19T03:28:57;18.90;99.90
25918;DHT22;13899;51.174;4.456;2022-08-19T03:31:25;19.00;99.90
25918;DHT22;13899;51.174;4.456;2022-08-19T03:33:57;18.90;99.90
25918;DHT22;13899;51.174;4.456;2022-08-19T03:36:26;18.60;99.90
25918;DHT22;13899;51.174;4.456;2022-08-19T03:38:56;18.50;99.90
25918;DHT22;13899;51.174;4.456;2022-08-19T03:41:25;18.40;99.90
25918;DHT22;13899;51.174;4.456;2022-08-19T03:43:52;18.50;99.90
25918;DHT22;13899;51.174;4.456;2022-08-19T03:46:20;18.10;99.90
25918;DHT22;13899;51.174;4.456;2022-08-19T03:48:48;17.90;99.90
25918;DHT22;13899;51.174;4.456;2022-08-19T03:51:21;18.00;99.90
25918;DHT22;13899;51.174;4.456;2022-08-19T03:53:47;18.20;99.90
25918;DHT22;13899;51.174;4.456;2022-08-19T03:56:15;18.40;99.90
25918;DHT22;13899;51.174;4.456;2022-08-19T03:58:44;18.70;99.90
25918;DHT22;13899;51.174;4.456;2022-08-19T04:01:18;18.80;99.90
25918;DHT22;13899;51.174;4.456;2022-08-19T04:03:46;18.50;99.90
25918;DHT22;13899;51.174;4.456;2022-08-19T04:06:21;18.30;99.90
25918;DHT22;13899;51.174;4.456;2022-08-19T04:08:49;18.10;99.90
25918;DHT22;13899;51.174;4.456;2022-08-19T04:11:18;18.10;99.90
25918;DHT22;13899;51.174;4.456;2022-08-19T04:13:46;18.20;99.90
25918;DHT22;13899;51.174;4.456;2022-08-19T04:16:11;18.20;99.90
25918;DHT22;13899;51.174;4.456;2022-08-19T04:18:39;18.20;99.90
25918;DHT22;13899;51.174;4.456;2022-08-19T04:21:07;18.30;99.90
25918;DHT22;13899;51.174;4.456;2022-08-19T04:23:34;18.10;99.90
25918;DHT22;13899;51.174;4.456;2022-08-19T04:26:03;18.00;99.90
25918;DHT22;13899;51.174;4.456;2022-08-19T04:28:29;17.90;99.90
25918;DHT22;13899;51.174;4.456;2022-08-19T04:30:56;17.90;99.90
25918;DHT22;13899;51.174;4.456;2022-08-19T04:33:24;18.10;99.90
25918;DHT22;13899;51.174;4.456;2022-08-19T04:35:51;18.20;99.90
25918;DHT22;13899;51.174;4.456;2022-08-19T04:38:19;18.20;99.90
25918;DHT22;13899;51.174;4.456;2022-08-19T04:40:49;18.20;99.90
25918;DHT22;13899;51.174;4.456;2022-08-19T04:43:35;18.00;99.90
25918;DHT22;13899;51.174;4.456;2022-08-19T04:46:06;18.00;99.90
25918;DHT22;13899;51.174;4.456;2022-08-19T04:48:31;18.10;99.90
25918;DHT22;13899;51.174;4.456;2022-08-19T04:50:58;18.20;99.90
25918;DHT22;13899;51.174;4.456;2022-08-19T04:53:25;18.20;99.90
25918;DHT22;13899;51.174;4.456;2022-08-19T04:55:52;18.30;99.90
25918;DHT22;13899;51.174;4.456;2022-08-19T04:58:19;18.00;99.90
25918;DHT22;13899;51.174;4.456;2022-08-19T05:00:45;18.10;99.90
25918;DHT22;13899;51.174;4.456;2022-08-19T05:03:12;18.20;99.90
25918;DHT22;13899;51.174;4.456;2022-08-19T05:05:40;18.30;99.90
25918;DHT22;13899;51.174;4.456;2022-08-19T05:08:06;17.80;99.90
25918;DHT22;13899;51.174;4.456;2022-08-19T05:10:36;17.70;99.90
25918;DHT22;13899;51.174;4.456;2022-08-19T05:13:02;17.70;99.90
25918;DHT22;13899;51.174;4.456;2022-08-19T05:15:28;17.70;99.90
25918;DHT22;13899;51.174;4.456;2022-08-19T05:17:53;17.90;99.90
25918;DHT22;13899;51.174;4.456;2022-08-19T05:20:38;18.00;99.90
25918;DHT22;13899;51.174;4.456;2022-08-19T05:23:24;17.80;99.90
25918;DHT22;13899;51.174;4.456;2022-08-19T05:25:51;17.70;99.90
25918;DHT22;13899;51.174;4.456;2022-08-19T05:28:19;17.60;99.90
25918;DHT22;13899;51.174;4.456;2022-08-19T05:30:45;17.60;99.90
25918;DHT22;13899;51.174;4.456;2022-08-19T05:33:11;17.70;99.90
25918;DHT22;13899;51.174;4.456;2022-08-19T05:35:38;17.60;99.90
25918;DHT22;13899;51.174;4.456;2022-08-19T05:38:05;17.70;99.90
25918;DHT22;13899;51.174;4.456;2022-08-19T05:40:35;17.70;99.90
25918;DHT22;13899;51.174;4.456;2022-08-19T05:43:06;17.60;99.90
25918;DHT22;13899;51.174;4.456;2022-08-19T05:45:47;17.70;99.90
25918;DHT22;13899;51.174;4.456;2022-08-19T05:48:28;17.70;99.90
25918;DHT22;13899;51.174;4.456;2022-08-19T05:50:54;17.70;99.90
25918;DHT22;13899;51.174;4.456;2022-08-19T05:53:19;17.90;99.90
25918;DHT22;13899;51.174;4.456;2022-08-19T05:55:45;18.00;99.90
25918;DHT22;13899;51.174;4.456;2022-08-19T05:58:11;17.80;99.90
25918;DHT22;13899;51.174;4.456;2022-08-19T06:00:37;17.70;99.90
25918;DHT22;13899;51.174;4.456;2022-08-19T06:03:04;17.90;99.90
25918;DHT22;13899;51.174;4.456;2022-08-19T06:05:31;18.00;99.90
25918;DHT22;13899;51.174;4.456;2022-08-19T06:07:58;18.00;99.90
25918;DHT22;13899;51.174;4.456;2022-08-19T06:10:25;18.20;99.90
25918;DHT22;13899;51.174;4.456;2022-08-19T06:12:57;18.10;99.90
25918;DHT22;13899;51.174;4.456;2022-08-19T06:15:24;18.10;99.90
25918;DHT22;13899;51.174;4.456;2022-08-19T06:18:00;18.40;99.90
25918;DHT22;13899;51.174;4.456;2022-08-19T06:20:47;18.50;99.90
25918;DHT22;13899;51.174;4.456;2022-08-19T06:23:18;18.50;99.90
25918;DHT22;13899;51.174;4.456;2022-08-19T06:25:47;18.30;99.90
25918;DHT22;13899;51.174;4.456;2022-08-19T06:28:42;18.50;99.90
25918;DHT22;13899;51.174;4.456;2022-08-19T06:31:27;18.40;99.90
25918;DHT22;13899;51.174;4.456;2022-08-19T06:34:00;18.40;99.90
25918;DHT22;13899;51.174;4.456;2022-08-19T06:36:35;18.50;99.90
25918;DHT22;13899;51.174;4.456;2022-08-19T06:39:05;18.90;99.90
25918;DHT22;13899;51.174;4.456;2022-08-19T06:41:36;19.00;99.90
25918;DHT22;13899;51.174;4.456;2022-08-19T06:44:09;18.90;99.90
25918;DHT22;13899;51.174;4.456;2022-08-19T06:46:41;19.00;99.90
25918;DHT22;13899;51.174;4.456;2022-08-19T06:49:13;19.00;99.90
25918;DHT22;13899;51.174;4.456;2022-08-19T06:51:44;18.80;99.90
25918;DHT22;13899;51.174;4.456;2022-08-19T06:54:31;18.90;99.90
25918;DHT22;13899;51.174;4.456;2022-08-19T06:57:07;19.20;99.90
25918;DHT22;13899;51.174;4.456;2022-08-19T06:59:52;19.20;99.90
25918;DHT22;13899;51.174;4.456;2022-08-19T07:02:50;19.30;99.90
25918;DHT22;13899;51.174;4.456;2022-08-19T07:08:19;19.40;99.90
25918;DHT22;13899;51.174;4.456;2022-08-19T07:27:20;19.30;99.90
25918;DHT22;13899;51.174;4.456;2022-08-19T07:43:51;19.40;99.90
25918;DHT22;13899;51.174;4.456;2022-08-19T07:46:47;19.30;99.90
25918;DHT22;13899;51.174;4.456;2022-08-19T07:49:26;19.60;99.90
25918;DHT22;13899;51.174;4.456;2022-08-19T07:52:17;19.70;99.90
25918;DHT22;13899;51.174;4.456;2022-08-19T07:54:46;19.90;99.90
25918;DHT22;13899;51.174;4.456;2022-08-19T07:57:24;20.10;99.90
25918;DHT22;13899;51.174;4.456;2022-08-19T07:59:49;20.10;99.90
25918;DHT22;13899;51.174;4.456;2022-08-19T08:02:15;20.30;99.90
25918;DHT22;13899;51.174;4.456;2022-08-19T08:04:46;20.20;99.90
25918;DHT22;13899;51.174;4.456;2022-08-19T08:07:34;20.30;99.90
25918;DHT22;13899;51.174;4.456;2022-08-19T08:10:23;20.70;99.90
25918;DHT22;13899;51.174;4.456;2022-08-19T08:17:08;20.50;99.90
25918;DHT22;13899;51.174;4.456;2022-08-19T08:20:05;20.80;99.90
25918;DHT22;13899;51.174;4.456;2022-08-19T08:43:54;21.50;99.90
25918;DHT22;13899;51.174;4.456;2022-08-19T08:46:42;21.70;99.90
25918;DHT22;13899;51.174;4.456;2022-08-19T08:52:39;22.20;99.90
25918;DHT22;13899;51.174;4.456;2022-08-19T08:58:27;21.60;99.90
25918;DHT22;13899;51.174;4.456;2022-08-19T09:02:01;21.20;99.90
25918;DHT22;13899;51.174;4.456;2022-08-19T09:08:04;21.40;99.90
25918;DHT22;13899;51.174;4.456;2022-08-19T09:24:09;21.10;99.90
25918;DHT22;13899;51.174;4.456;2022-08-19T09:26:39;21.30;99.90
25918;DHT22;13899;51.174;4.456;2022-08-19T09:29:04;21.40;99.90
25918;DHT22;13899;51.174;4.456;2022-08-19T09:31:37;21.70;99.90
25918;DHT22;13899;51.174;4.456;2022-08-19T09:34:17;21.80;99.90
25918;DHT22;13899;51.174;4.456;2022-08-19T09:37:25;22.00;99.90
25918;DHT22;13899;51.174;4.456;2022-08-19T09:40:01;22.20;99.90
25918;DHT22;13899;51.174;4.456;2022-08-19T09:42:39;22.10;99.90
25918;DHT22;13899;51.174;4.456;2022-08-19T09:45:09;22.20;99.90
25918;DHT22;13899;51.174;4.456;2022-08-19T09:47:44;21.70;99.90
25918;DHT22;13899;51.174;4.456;2022-08-19T09:50:27;21.70;99.90
25918;DHT22;13899;51.174;4.456;2022-08-19T09:52:58;21.60;99.90
25918;DHT22;13899;51.174;4.456;2022-08-19T09:55:41;22.00;99.90
25918;DHT22;13899;51.174;4.456;2022-08-19T10:05:12;22.60;99.90
25918;DHT22;13899;51.174;4.456;2022-08-19T10:08:20;22.40;99.90
25918;DHT22;13899;51.174;4.456;2022-08-19T10:10:51;22.60;99.90
25918;DHT22;13899;51.174;4.456;2022-08-19T10:13:35;22.30;99.90
25918;DHT22;13899;51.174;4.456;2022-08-19T10:16:06;21.80;99.90
25918;DHT22;13899;51.174;4.456;2022-08-19T10:18:37;21.70;99.90
25918;DHT22;13899;51.174;4.456;2022-08-19T10:21:08;22.10;99.90
25918;DHT22;13899;51.174;4.456;2022-08-19T10:23:44;22.20;99.90
25918;DHT22;13899;51.174;4.456;2022-08-19T10:26:14;22.40;99.90
25918;DHT22;13899;51.174;4.456;2022-08-19T10:28:43;21.90;99.90
25918;DHT22;13899;51.174;4.456;2022-08-19T10:31:16;21.80;99.90
25918;DHT22;13899;51.174;4.456;2022-08-19T10:33:51;22.00;99.90
25918;DHT22;13899;51.174;4.456;2022-08-19T10:36:28;22.20;99.90
25918;DHT22;13899;51.174;4.456;2022-08-19T10:39:00;22.10;99.90
25918;DHT22;13899;51.174;4.456;2022-08-19T10:41:34;22.50;99.90
25918;DHT22;13899;51.174;4.456;2022-08-19T10:44:05;22.60;99.90
25918;DHT22;13899;51.174;4.456;2022-08-19T10:46:41;22.70;99.90
25918;DHT22;13899;51.174;4.456;2022-08-19T10:49:23;22.40;99.90
25918;DHT22;13899;51.174;4.456;2022-08-19T10:51:56;22.60;99.90
25918;DHT22;13899;51.174;4.456;2022-08-19T10:55:02;22.50;99.90
25918;DHT22;13899;51.174;4.456;2022-08-19T10:57:48;22.10;99.90
25918;DHT22;13899;51.174;4.456;2022-08-19T11:00:27;22.30;99.90
25918;DHT22;13899;51.174;4.456;2022-08-19T11:03:19;22.10;99.90
25918;DHT22;13899;51.174;4.456;2022-08-19T11:05:56;22.20;99.90
25918;DHT22;13899;51.174;4.456;2022-08-19T11:08:38;22.20;99.90
25918;DHT22;13899;51.174;4.456;2022-08-19T11:11:26;22.60;99.90
25918;DHT22;13899;51.174;4.456;2022-08-19T11:14:17;22.70;99.90
25918;DHT22;13899;51.174;4.456;2022-08-19T11:17:06;23.00;99.90
25918;DHT22;13899;51.174;4.456;2022-08-19T11:19:52;22.80;99.90
25918;DHT22;13899;51.174;4.456;2022-08-19T11:22:23;23.10;99.90
25918;DHT22;13899;51.174;4.456;2022-08-19T11:25:23;22.70;99.90
25918;DHT22;13899;51.174;4.456;2022-08-19T11:28:13;22.90;99.90
25918;DHT22;13899;51.174;4.456;2022-08-19T11:31:11;23.10;99.90
25918;DHT22;13899;51.174;4.456;2022-08-19T11:34:20;23.20;99.90
25918;DHT22;13899;51.174;4.456;2022-08-19T11:37:14;23.20;99.90
25918;DHT22;13899;51.174;4.456;2022-08-19T11:39:49;23.00;99.90
25918;DHT22;13899;51.174;4.456;2022-08-19T11:42:17;23.00;99.90
25918;DHT22;13899;51.174;4.456;2022-08-19T11:45:02;23.40;99.90
25918;DHT22;13899;51.174;4.456;2022-08-19T11:47:31;23.50;99.90
25918;DHT22;13899;51.174;4.456;2022-08-19T11:50:04;23.40;99.90
25918;DHT22;13899;51.174;4.456;2022-08-19T11:56:27;23.30;99.90
25918;DHT22;13899;51.174;4.456;2022-08-19T11:59:22;23.50;99.90
25918;DHT22;13899;51.174;4.456;2022-08-19T12:01:52;23.80;99.90
25918;DHT22;13899;51.174;4.456;2022-08-19T12:04:18;23.50;99.90
25918;DHT22;13899;51.174;4.456;2022-08-19T12:06:44;23.80;99.90
25918;DHT22;13899;51.174;4.456;2022-08-19T12:09:35;23.70;99.90
25918;DHT22;13899;51.174;4.456;2022-08-19T12:12:46;23.80;99.90
25918;DHT22;13899;51.174;4.456;2022-08-19T12:15:45;23.60;99.90
25918;DHT22;13899;51.174;4.456;2022-08-19T12:18:20;23.60;99.90
25918;DHT22;13899;51.174;4.456;2022-08-19T12:20:47;24.20;99.90
25918;DHT22;13899;51.174;4.456;2022-08-19T12:23:13;24.60;99.90
25918;DHT22;13899;51.174;4.456;2022-08-19T12:25:46;25.40;99.90
25918;DHT22;13899;51.174;4.456;2022-08-19T12:28:17;25.90;99.90
25918;DHT22;13899;51.174;4.456;2022-08-19T12:30:42;25.40;99.90
25918;DHT22;13899;51.174;4.456;2022-08-19T12:33:08;26.20;99.90
25918;DHT22;13899;51.174;4.456;2022-08-19T12:35:34;26.40;99.90
25918;DHT22;13899;51.174;4.456;2022-08-19T12:38:01;27.00;99.90
25918;DHT22;13899;51.174;4.456;2022-08-19T12:40:28;27.50;99.90
25918;DHT22;13899;51.174;4.456;2022-08-19T12:42:54;27.40;99.90
25918;DHT22;13899;51.174;4.456;2022-08-19T12:45:20;26.30;99.90
25918;DHT22;13899;51.174;4.456;2022-08-19T12:47:50;25.30;99.90
25918;DHT22;13899;51.174;4.456;2022-08-19T12:50:21;25.10;99.90
25918;DHT22;13899;51.174;4.456;2022-08-19T12:52:47;25.40;99.90
25918;DHT22;13899;51.174;4.456;2022-08-19T12:55:34;25.00;99.90
25918;DHT22;13899;51.174;4.456;2022-08-19T12:58:08;25.10;99.90
25918;DHT22;13899;51.174;4.456;2022-08-19T13:00:34;25.20;99.90
25918;DHT22;13899;51.174;4.456;2022-08-19T13:03:00;25.00;99.90
25918;DHT22;13899;51.174;4.456;2022-08-19T13:05:30;25.10;99.90
25918;DHT22;13899;51.174;4.456;2022-08-19T13:07:57;25.00;99.90
25918;DHT22;13899;51.174;4.456;2022-08-19T13:10:35;25.10;99.90
25918;DHT22;13899;51.174;4.456;2022-08-19T13:13:07;25.00;99.90
25918;DHT22;13899;51.174;4.456;2022-08-19T13:15:34;24.70;99.90
25918;DHT22;13899;51.174;4.456;2022-08-19T13:18:00;24.50;99.90
25918;DHT22;13899;51.174;4.456;2022-08-19T13:20:30;24.80;99.90
25918;DHT22;13899;51.174;4.456;2022-08-19T13:22:58;25.00;99.90
25918;DHT22;13899;51.174;4.456;2022-08-19T13:25:27;25.10;99.90
25918;DHT22;13899;51.174;4.456;2022-08-19T13:28:16;24.90;99.90
25918;DHT22;13899;51.174;4.456;2022-08-19T13:30:42;25.50;99.90
25918;DHT22;13899;51.174;4.456;2022-08-19T13:33:59;26.20;99.90
25918;DHT22;13899;51.174;4.456;2022-08-19T13:36:49;27.90;99.90
25918;DHT22;13899;51.174;4.456;2022-08-19T13:39:27;29.00;99.90
25918;DHT22;13899;51.174;4.456;2022-08-19T13:42:05;28.40;99.90
25918;DHT22;13899;51.174;4.456;2022-08-19T13:45:23;29.00;99.90
25918;DHT22;13899;51.174;4.456;2022-08-19T13:47:55;29.70;99.90
25918;DHT22;13899;51.174;4.456;2022-08-19T13:50:26;30.60;99.90
25918;DHT22;13899;51.174;4.456;2022-08-19T13:52:53;29.20;99.90
25918;DHT22;13899;51.174;4.456;2022-08-19T13:55:22;30.50;99.90
25918;DHT22;13899;51.174;4.456;2022-08-19T13:58:16;32.00;99.90
25918;DHT22;13899;51.174;4.456;2022-08-19T14:00:44;32.00;99.90
25918;DHT22;13899;51.174;4.456;2022-08-19T14:03:10;30.10;99.90
25918;DHT22;13899;51.174;4.456;2022-08-19T14:05:36;29.50;99.90
25918;DHT22;13899;51.174;4.456;2022-08-19T14:08:03;30.10;99.90
25918;DHT22;13899;51.174;4.456;2022-08-19T14:10:29;31.00;99.90
25918;DHT22;13899;51.174;4.456;2022-08-19T14:13:00;29.70;99.90
25918;DHT22;13899;51.174;4.456;2022-08-19T14:15:30;30.20;99.90
25918;DHT22;13899;51.174;4.456;2022-08-19T14:17:56;29.40;99.90
25918;DHT22;13899;51.174;4.456;2022-08-19T14:20:23;28.30;99.90
25918;DHT22;13899;51.174;4.456;2022-08-19T14:22:49;28.70;99.90
25918;DHT22;13899;51.174;4.456;2022-08-19T14:25:18;27.70;99.90
25918;DHT22;13899;51.174;4.456;2022-08-19T14:27:48;27.00;99.90
25918;DHT22;13899;51.174;4.456;2022-08-19T14:30:25;27.10;99.90
25918;DHT22;13899;51.174;4.456;2022-08-19T14:33:01;27.40;99.90
25918;DHT22;13899;51.174;4.456;2022-08-19T14:35:50;27.60;99.90
25918;DHT22;13899;51.174;4.456;2022-08-19T14:39:20;27.20;99.90
25918;DHT22;13899;51.174;4.456;2022-08-19T14:42:09;26.80;99.90
25918;DHT22;13899;51.174;4.456;2022-08-19T14:44:36;27.00;99.90
25918;DHT22;13899;51.174;4.456;2022-08-19T14:47:02;27.10;99.90
25918;DHT22;13899;51.174;4.456;2022-08-19T14:49:28;26.80;99.90
25918;DHT22;13899;51.174;4.456;2022-08-19T14:51:58;26.90;99.90
25918;DHT22;13899;51.174;4.456;2022-08-19T14:54:24;26.60;99.90
25918;DHT22;13899;51.174;4.456;2022-08-19T14:56:50;26.30;99.90
25918;DHT22;13899;51.174;4.456;2022-08-19T14:59:15;25.90;99.90
25918;DHT22;13899;51.174;4.456;2022-08-19T15:01:41;25.30;99.90
25918;DHT22;13899;51.174;4.456;2022-08-19T15:04:07;24.90;99.90
25918;DHT22;13899;51.174;4.456;2022-08-19T15:06:33;24.20;99.90
25918;DHT22;13899;51.174;4.456;2022-08-19T15:08:59;23.70;99.90
25918;DHT22;13899;51.174;4.456;2022-08-19T15:11:27;23.00;99.90
25918;DHT22;13899;51.174;4.456;2022-08-19T15:13:54;22.80;99.90
25918;DHT22;13899;51.174;4.456;2022-08-19T15:16:21;22.70;99.90
25918;DHT22;13899;51.174;4.456;2022-08-19T15:18:49;22.80;99.90
25918;DHT22;13899;51.174;4.456;2022-08-19T15:21:16;22.70;99.90
25918;DHT22;13899;51.174;4.456;2022-08-19T15:23:44;22.90;99.90
25918;DHT22;13899;51.174;4.456;2022-08-19T15:26:10;23.00;99.90
25918;DHT22;13899;51.174;4.456;2022-08-19T15:28:36;23.20;99.90
25918;DHT22;13899;51.174;4.456;2022-08-19T15:31:03;23.30;99.90
25918;DHT22;13899;51.174;4.456;2022-08-19T15:33:31;23.70;99.90
25918;DHT22;13899;51.174;4.456;2022-08-19T15:35:57;24.00;99.90
25918;DHT22;13899;51.174;4.456;2022-08-19T15:38:23;24.20;99.90
25918;DHT22;13899;51.174;4.456;2022-08-19T15:40:51;24.60;99.90
25918;DHT22;13899;51.174;4.456;2022-08-19T15:43:18;25.10;99.90
25918;DHT22;13899;51.174;4.456;2022-08-19T15:45:46;25.40;99.90
25918;DHT22;13899;51.174;4.456;2022-08-19T15:48:11;25.70;99.90
25918;DHT22;13899;51.174;4.456;2022-08-19T15:50:37;25.80;99.90
25918;DHT22;13899;51.174;4.456;2022-08-19T15:53:06;25.80;99.90
25918;DHT22;13899;51.174;4.456;2022-08-19T15:55:35;26.00;99.90
25918;DHT22;13899;51.174;4.456;2022-08-19T15:58:12;26.00;99.90
25918;DHT22;13899;51.174;4.456;2022-08-19T16:00:58;26.40;99.90
25918;DHT22;13899;51.174;4.456;2022-08-19T16:03:43;26.80;99.90
25918;DHT22;13899;51.174;4.456;2022-08-19T16:06:27;26.90;99.90
25918;DHT22;13899;51.174;4.456;2022-08-19T16:08:59;27.00;99.90
25918;DHT22;13899;51.174;4.456;2022-08-19T16:11:27;27.00;99.90
25918;DHT22;13899;51.174;4.456;2022-08-19T16:13:55;27.20;99.90
25918;DHT22;13899;51.174;4.456;2022-08-19T16:16:28;27.10;99.90
25918;DHT22;13899;51.174;4.456;2022-08-19T16:18:55;27.10;99.90
25918;DHT22;13899;51.174;4.456;2022-08-19T16:21:23;26.50;99.90
25918;DHT22;13899;51.174;4.456;2022-08-19T16:23:50;26.40;99.90
25918;DHT22;13899;51.174;4.456;2022-08-19T16:26:17;26.30;99.90
25918;DHT22;13899;51.174;4.456;2022-08-19T16:28:44;26.10;99.90
25918;DHT22;13899;51.174;4.456;2022-08-19T16:31:12;26.00;99.90
25918;DHT22;13899;51.174;4.456;2022-08-19T16:33:38;26.00;99.90
25918;DHT22;13899;51.174;4.456;2022-08-19T16:36:04;26.00;99.90
25918;DHT22;13899;51.174;4.456;2022-08-19T16:38:31;25.70;99.90
25918;DHT22;13899;51.174;4.456;2022-08-19T16:40:57;25.60;99.90
25918;DHT22;13899;51.174;4.456;2022-08-19T16:43:26;25.70;99.90
25918;DHT22;13899;51.174;4.456;2022-08-19T16:45:53;25.80;99.90
25918;DHT22;13899;51.174;4.456;2022-08-19T16:48:20;25.80;99.90
25918;DHT22;13899;51.174;4.456;2022-08-19T16:50:47;25.70;99.90
25918;DHT22;13899;51.174;4.456;2022-08-19T16:53:21;25.70;99.90
25918;DHT22;13899;51.174;4.456;2022-08-19T16:55:49;25.70;99.90
25918;DHT22;13899;51.174;4.456;2022-08-19T16:58:20;25.70;99.90
25918;DHT22;13899;51.174;4.456;2022-08-19T17:00:47;25.70;99.90
25918;DHT22;13899;51.174;4.456;2022-08-19T17:03:15;25.60;99.90
25918;DHT22;13899;51.174;4.456;2022-08-19T17:05:46;25.60;99.90
25918;DHT22;13899;51.174;4.456;2022-08-19T17:08:13;25.20;99.90
25918;DHT22;13899;51.174;4.456;2022-08-19T17:10:41;25.10;99.90
25918;DHT22;13899;51.174;4.456;2022-08-19T17:13:07;24.90;99.90
25918;DHT22;13899;51.174;4.456;2022-08-19T17:15:34;25.00;99.90
25918;DHT22;13899;51.174;4.456;2022-08-19T17:18:04;25.10;99.90
25918;DHT22;13899;51.174;4.456;2022-08-19T17:20:30;25.00;99.90
25918;DHT22;13899;51.174;4.456;2022-08-19T17:22:57;25.00;99.90
25918;DHT22;13899;51.174;4.456;2022-08-19T17:25:26;25.10;99.90
25918;DHT22;13899;51.174;4.456;2022-08-19T17:27:52;25.10;99.90
25918;DHT22;13899;51.174;4.456;2022-08-19T17:30:20;25.20;99.90
25918;DHT22;13899;51.174;4.456;2022-08-19T17:32:46;25.10;99.90
25918;DHT22;13899;51.174;4.456;2022-08-19T17:35:12;24.80;99.90